DAL1534 KSLC-KSAN
Flight info
| Callsign | DAL1534 |
|---|---|
| Flight time | 1h 33m |
| Altitude | 38000 |
| Route | KSLC/34R ARCHZ1 WINEN DCT LAKRR Q73 LVELL LUCKI1 KSAN/27 |
| Aircraft | B739/M-SDE2E3FGHIRWXY/LB1 |
Departure
| Time | 2026-04-23 01:43 |
|---|---|
| Airport | Salt Lake City International Airport (KSLC) |
Arrival
| Time | 2026-04-23 03:16 |
|---|---|
| Airport | San Diego International Airport (KSAN) |
| Time | Latitude | Longitude | Altitude | Speed | Heading |
|---|---|---|---|---|---|
| 2026-04-23 01:13 | 40.78605 | -111.98885 | 4229 ft | 0 kts | 175° |
| 2026-04-23 01:31 | 40.78610 | -111.98886 | 4230 ft | 3 kts | 175° |
| 2026-04-23 01:31 | 40.78637 | -111.98889 | 4228 ft | 4 kts | 168° |
| 2026-04-23 01:31 | 40.78661 | -111.98901 | 4230 ft | 4 kts | 140° |
| 2026-04-23 01:32 | 40.78675 | -111.98927 | 4229 ft | 4 kts | 95° |
| 2026-04-23 01:32 | 40.78675 | -111.98942 | 4229 ft | 1 kts | 85° |
| 2026-04-23 01:32 | 40.78675 | -111.98943 | 4229 ft | 0 kts | 85° |
| 2026-04-23 01:36 | 40.78676 | -111.98933 | 4230 ft | 4 kts | 85° |
| 2026-04-23 01:36 | 40.78681 | -111.98871 | 4230 ft | 10 kts | 84° |
| 2026-04-23 01:36 | 40.78688 | -111.98757 | 4230 ft | 14 kts | 85° |
| 2026-04-23 01:37 | 40.78699 | -111.98609 | 4228 ft | 18 kts | 84° |
| 2026-04-23 01:37 | 40.78709 | -111.98434 | 4230 ft | 21 kts | 85° |
| 2026-04-23 01:37 | 40.78724 | -111.98234 | 4230 ft | 23 kts | 83° |
| 2026-04-23 01:37 | 40.78737 | -111.98039 | 4230 ft | 21 kts | 86° |
| 2026-04-23 01:38 | 40.78750 | -111.97835 | 4230 ft | 18 kts | 84° |
| 2026-04-23 01:38 | 40.78747 | -111.97695 | 4230 ft | 14 kts | 122° |
| 2026-04-23 01:38 | 40.78654 | -111.97671 | 4230 ft | 16 kts | 174° |
| 2026-04-23 01:38 | 40.78528 | -111.97656 | 4230 ft | 21 kts | 175° |
| 2026-04-23 01:39 | 40.78369 | -111.97637 | 4229 ft | 25 kts | 175° |
| 2026-04-23 01:39 | 40.78220 | -111.97620 | 4230 ft | 23 kts | 175° |
| 2026-04-23 01:39 | 40.78078 | -111.97604 | 4229 ft | 19 kts | 176° |
| 2026-04-23 01:39 | 40.77948 | -111.97582 | 4262 ft | 17 kts | 163° |
| 2026-04-23 01:40 | 40.77827 | -111.97529 | 4263 ft | 19 kts | 171° |
| 2026-04-23 01:40 | 40.77681 | -111.97508 | 4263 ft | 23 kts | 175° |
| 2026-04-23 01:40 | 40.77535 | -111.97491 | 4263 ft | 14 kts | 175° |
| 2026-04-23 01:40 | 40.77468 | -111.97476 | 4263 ft | 3 kts | 150° |
| 2026-04-23 01:41 | 40.77466 | -111.97474 | 4263 ft | 0 kts | 147° |
| 2026-04-23 01:41 | 40.77457 | -111.97463 | 4263 ft | 5 kts | 133° |
| 2026-04-23 01:41 | 40.77460 | -111.97390 | 4261 ft | 12 kts | 53° |
| 2026-04-23 01:42 | 40.77548 | -111.97325 | 4262 ft | 18 kts | 1° |
| 2026-04-23 01:42 | 40.77813 | -111.97356 | 4263 ft | 72 kts | 355° |
| 2026-04-23 01:42 | 40.78533 | -111.97440 | 4230 ft | 132 kts | 355° |
| 2026-04-23 01:42 | 40.79581 | -111.97561 | 4459 ft | 160 kts | 354° |
| 2026-04-23 01:43 | 40.80705 | -111.97688 | 5173 ft | 169 kts | 352° |
| 2026-04-23 01:43 | 40.81929 | -111.97974 | 5569 ft | 188 kts | 334° |
| 2026-04-23 01:43 | 40.83027 | -111.98964 | 6052 ft | 200 kts | 313° |
| 2026-04-23 01:43 | 40.83793 | -112.00603 | 6251 ft | 224 kts | 292° |
| 2026-04-23 01:44 | 40.84355 | -112.02623 | 6506 ft | 243 kts | 291° |
| 2026-04-23 01:44 | 40.84719 | -112.04827 | 6934 ft | 253 kts | 265° |
| 2026-04-23 01:44 | 40.84090 | -112.06950 | 7799 ft | 242 kts | 238° |
| 2026-04-23 01:44 | 40.83204 | -112.08765 | 8831 ft | 232 kts | 242° |
| 2026-04-23 01:45 | 40.82351 | -112.10623 | 9337 ft | 247 kts | 241° |
| 2026-04-23 01:45 | 40.81442 | -112.12684 | 9654 ft | 269 kts | 243° |
| 2026-04-23 01:45 | 40.80512 | -112.14851 | 10440 ft | 273 kts | 243° |
| 2026-04-23 01:45 | 40.79554 | -112.17139 | 10702 ft | 297 kts | 243° |
| 2026-04-23 01:46 | 40.78541 | -112.19601 | 10889 ft | 321 kts | 243° |
| 2026-04-23 01:46 | 40.77807 | -112.21394 | 11027 ft | 336 kts | 243° |
| 2026-04-23 01:46 | 40.76189 | -112.24953 | 11855 ft | 347 kts | 231° |
| 2026-04-23 01:46 | 40.74282 | -112.26963 | 12530 ft | 357 kts | 211° |
| 2026-04-23 01:47 | 40.71955 | -112.28146 | 13384 ft | 363 kts | 195° |
| 2026-04-23 01:47 | 40.70265 | -112.28543 | 13917 ft | 366 kts | 192° |
| 2026-04-23 01:47 | 40.67721 | -112.29009 | 14534 ft | 372 kts | 191° |
| 2026-04-23 01:47 | 40.65139 | -112.29460 | 15105 ft | 377 kts | 191° |
| 2026-04-23 01:48 | 40.62527 | -112.29949 | 15718 ft | 382 kts | 192° |
| 2026-04-23 01:48 | 40.59885 | -112.30475 | 16318 ft | 386 kts | 192° |
| 2026-04-23 01:48 | 40.57217 | -112.31020 | 16919 ft | 390 kts | 193° |
| 2026-04-23 01:48 | 40.54561 | -112.31796 | 17503 ft | 392 kts | 200° |
| 2026-04-23 01:49 | 40.51943 | -112.32857 | 18096 ft | 396 kts | 201° |
| 2026-04-23 01:49 | 40.49306 | -112.33985 | 18614 ft | 401 kts | 201° |
| 2026-04-23 01:49 | 40.46642 | -112.35128 | 19125 ft | 405 kts | 201° |
| 2026-04-23 01:49 | 40.43950 | -112.36265 | 19633 ft | 409 kts | 200° |
| 2026-04-23 01:50 | 40.41223 | -112.37397 | 20133 ft | 413 kts | 201° |
| 2026-04-23 01:50 | 40.38467 | -112.38533 | 20614 ft | 418 kts | 200° |
| 2026-04-23 01:50 | 40.35705 | -112.39659 | 21419 ft | 413 kts | 200° |
| 2026-04-23 01:50 | 40.32950 | -112.40779 | 21983 ft | 416 kts | 200° |
| 2026-04-23 01:51 | 40.30168 | -112.41911 | 22409 ft | 421 kts | 200° |
| 2026-04-23 01:51 | 40.27353 | -112.43055 | 22865 ft | 425 kts | 201° |
| 2026-04-23 01:51 | 40.24556 | -112.44191 | 23350 ft | 428 kts | 200° |
| 2026-04-23 01:51 | 40.21697 | -112.45352 | 23791 ft | 431 kts | 200° |
| 2026-04-23 01:52 | 40.18835 | -112.46528 | 24235 ft | 432 kts | 202° |
| 2026-04-23 01:52 | 40.16083 | -112.48093 | 24585 ft | 431 kts | 212° |
| 2026-04-23 01:52 | 40.13513 | -112.49936 | 25684 ft | 413 kts | 214° |
| 2026-04-23 01:52 | 40.11013 | -112.51745 | 26371 ft | 409 kts | 214° |
| 2026-04-23 01:53 | 40.08508 | -112.53557 | 26642 ft | 415 kts | 214° |
| 2026-04-23 01:53 | 40.05963 | -112.55383 | 26945 ft | 419 kts | 214° |
| 2026-04-23 01:53 | 40.03406 | -112.57199 | 27422 ft | 418 kts | 214° |
| 2026-04-23 01:53 | 40.00847 | -112.59002 | 27897 ft | 418 kts | 214° |
| 2026-04-23 01:54 | 39.98285 | -112.60800 | 28346 ft | 419 kts | 214° |
| 2026-04-23 01:54 | 39.95719 | -112.62597 | 28878 ft | 417 kts | 214° |
| 2026-04-23 01:54 | 39.93188 | -112.64365 | 29660 ft | 409 kts | 214° |
| 2026-04-23 01:54 | 39.90708 | -112.66094 | 30381 ft | 400 kts | 216° |
| 2026-04-23 01:55 | 39.88266 | -112.67794 | 30904 ft | 397 kts | 216° |
| 2026-04-23 01:55 | 39.85815 | -112.69505 | 31082 ft | 402 kts | 216° |
| 2026-04-23 01:55 | 39.83339 | -112.71243 | 31282 ft | 406 kts | 215° |
| 2026-04-23 01:55 | 39.80852 | -112.72983 | 31640 ft | 406 kts | 215° |
| 2026-04-23 01:56 | 39.78414 | -112.74683 | 32037 ft | 405 kts | 215° |
| 2026-04-23 01:56 | 39.75883 | -112.76446 | 32343 ft | 406 kts | 215° |
| 2026-04-23 01:56 | 39.73384 | -112.78185 | 32614 ft | 408 kts | 215° |
| 2026-04-23 01:56 | 39.70881 | -112.79925 | 32880 ft | 409 kts | 215° |
| 2026-04-23 01:57 | 39.68347 | -112.81633 | 33107 ft | 414 kts | 212° |
| 2026-04-23 01:57 | 39.65626 | -112.82962 | 33479 ft | 420 kts | 205° |
| 2026-04-23 01:57 | 39.62840 | -112.84042 | 33951 ft | 416 kts | 205° |
| 2026-04-23 01:57 | 39.60060 | -112.85124 | 34170 ft | 418 kts | 205° |
| 2026-04-23 01:58 | 39.57264 | -112.86222 | 34338 ft | 421 kts | 205° |
| 2026-04-23 01:58 | 39.54462 | -112.87329 | 34577 ft | 421 kts | 205° |
| 2026-04-23 01:58 | 39.51664 | -112.88436 | 34850 ft | 420 kts | 205° |
| 2026-04-23 01:58 | 39.48867 | -112.89546 | 35069 ft | 421 kts | 205° |
| 2026-04-23 01:59 | 39.46057 | -112.90662 | 35270 ft | 422 kts | 205° |
| 2026-04-23 01:59 | 39.43247 | -112.91778 | 35552 ft | 420 kts | 205° |
| 2026-04-23 01:59 | 39.40468 | -112.92877 | 35935 ft | 417 kts | 205° |
| 2026-04-23 01:59 | 39.37688 | -112.93979 | 36099 ft | 419 kts | 205° |
| 2026-04-23 02:00 | 39.34894 | -112.95089 | 36202 ft | 422 kts | 205° |
| 2026-04-23 02:00 | 39.32119 | -112.96190 | 36380 ft | 423 kts | 205° |
| 2026-04-23 02:00 | 39.29309 | -112.97302 | 36645 ft | 422 kts | 205° |
| 2026-04-23 02:00 | 39.26500 | -112.98411 | 36857 ft | 422 kts | 205° |
| 2026-04-23 02:01 | 39.23687 | -112.99522 | 37029 ft | 423 kts | 205° |
| 2026-04-23 02:01 | 39.20868 | -113.00634 | 37183 ft | 424 kts | 205° |
| 2026-04-23 02:01 | 39.18049 | -113.01744 | 37459 ft | 423 kts | 205° |
| 2026-04-23 02:01 | 39.15237 | -113.02851 | 37637 ft | 423 kts | 205° |
| 2026-04-23 02:02 | 39.12416 | -113.03962 | 37780 ft | 425 kts | 205° |
| 2026-04-23 02:02 | 39.09586 | -113.05076 | 37889 ft | 426 kts | 205° |
| 2026-04-23 02:02 | 39.03898 | -113.07310 | 37894 ft | 426 kts | 205° |
| 2026-04-23 02:03 | 38.98247 | -113.09521 | 37873 ft | 423 kts | 205° |
| 2026-04-23 02:03 | 38.92642 | -113.11712 | 37906 ft | 419 kts | 205° |
| 2026-04-23 02:04 | 38.87074 | -113.13888 | 37915 ft | 417 kts | 205° |
| 2026-04-23 02:04 | 38.81529 | -113.16053 | 37921 ft | 416 kts | 205° |
| 2026-04-23 02:05 | 38.75983 | -113.18215 | 37924 ft | 417 kts | 205° |
| 2026-04-23 02:05 | 38.70426 | -113.20378 | 37913 ft | 418 kts | 205° |
| 2026-04-23 02:06 | 38.64841 | -113.22548 | 37953 ft | 421 kts | 205° |
| 2026-04-23 02:06 | 38.59210 | -113.24723 | 37967 ft | 424 kts | 205° |
| 2026-04-23 02:07 | 38.53542 | -113.26915 | 37964 ft | 427 kts | 205° |
| 2026-04-23 02:07 | 38.47856 | -113.29115 | 37963 ft | 427 kts | 206° |
| 2026-04-23 02:08 | 38.42157 | -113.31317 | 37946 ft | 428 kts | 206° |
| 2026-04-23 02:08 | 38.36451 | -113.33514 | 37939 ft | 428 kts | 206° |
| 2026-04-23 02:09 | 38.30751 | -113.35702 | 37929 ft | 427 kts | 206° |
| 2026-04-23 02:09 | 38.25068 | -113.37883 | 37915 ft | 425 kts | 206° |
| 2026-04-23 02:10 | 38.19412 | -113.40048 | 37919 ft | 424 kts | 206° |
| 2026-04-23 02:10 | 38.13766 | -113.42208 | 37896 ft | 423 kts | 206° |
| 2026-04-23 02:11 | 38.08137 | -113.44361 | 37892 ft | 421 kts | 205° |
| 2026-04-23 02:11 | 38.02534 | -113.46495 | 37879 ft | 419 kts | 206° |
| 2026-04-23 02:12 | 37.96958 | -113.48621 | 37903 ft | 419 kts | 206° |
| 2026-04-23 02:12 | 37.91383 | -113.50773 | 37900 ft | 418 kts | 207° |
| 2026-04-23 02:13 | 37.85892 | -113.53154 | 37898 ft | 417 kts | 208° |
| 2026-04-23 02:13 | 37.80405 | -113.55592 | 37857 ft | 418 kts | 208° |
| 2026-04-23 02:14 | 37.74907 | -113.58008 | 37885 ft | 419 kts | 208° |
| 2026-04-23 02:14 | 37.69383 | -113.60413 | 37894 ft | 420 kts | 208° |
| 2026-04-23 02:15 | 37.61073 | -113.64010 | 37903 ft | 421 kts | 208° |
| 2026-04-23 02:16 | 37.55527 | -113.66405 | 37885 ft | 421 kts | 208° |
| 2026-04-23 02:16 | 37.49989 | -113.68793 | 37892 ft | 420 kts | 208° |
| 2026-04-23 02:17 | 37.44462 | -113.71179 | 37891 ft | 420 kts | 208° |
| 2026-04-23 02:17 | 37.38940 | -113.73551 | 37893 ft | 419 kts | 208° |
| 2026-04-23 02:18 | 37.33440 | -113.75907 | 37877 ft | 417 kts | 208° |
| 2026-04-23 02:18 | 37.27967 | -113.78252 | 37874 ft | 414 kts | 209° |
| 2026-04-23 02:19 | 37.22533 | -113.80577 | 37889 ft | 412 kts | 209° |
| 2026-04-23 02:19 | 37.17138 | -113.82891 | 37895 ft | 406 kts | 210° |
| 2026-04-23 02:20 | 37.11779 | -113.85177 | 37907 ft | 409 kts | 210° |
| 2026-04-23 02:20 | 37.06351 | -113.87498 | 37883 ft | 414 kts | 209° |
| 2026-04-23 02:21 | 37.00889 | -113.89819 | 37878 ft | 415 kts | 209° |
| 2026-04-23 02:21 | 36.95408 | -113.92144 | 37873 ft | 416 kts | 209° |
| 2026-04-23 02:22 | 36.89930 | -113.94465 | 37877 ft | 415 kts | 209° |
| 2026-04-23 02:22 | 36.84455 | -113.96782 | 37869 ft | 415 kts | 209° |
| 2026-04-23 02:23 | 36.79000 | -113.99087 | 37862 ft | 413 kts | 209° |
| 2026-04-23 02:23 | 36.73559 | -114.01385 | 37859 ft | 412 kts | 209° |
| 2026-04-23 02:24 | 36.68132 | -114.03674 | 37850 ft | 411 kts | 209° |
| 2026-04-23 02:24 | 36.62724 | -114.05949 | 37856 ft | 410 kts | 209° |
| 2026-04-23 02:25 | 36.57359 | -114.08221 | 37831 ft | 403 kts | 210° |
| 2026-04-23 02:25 | 36.51990 | -114.10475 | 37868 ft | 411 kts | 210° |
| 2026-04-23 02:26 | 36.46530 | -114.12759 | 37860 ft | 415 kts | 210° |
| 2026-04-23 02:26 | 36.41045 | -114.15049 | 37836 ft | 416 kts | 210° |
| 2026-04-23 02:27 | 36.35561 | -114.17327 | 37806 ft | 413 kts | 210° |
| 2026-04-23 02:27 | 36.30142 | -114.19593 | 37840 ft | 410 kts | 210° |
| 2026-04-23 02:28 | 36.25595 | -114.21494 | 37840 ft | 412 kts | 210° |
| 2026-04-23 02:28 | 36.20154 | -114.23761 | 37849 ft | 413 kts | 210° |
| 2026-04-23 02:29 | 36.14685 | -114.26034 | 37840 ft | 416 kts | 209° |
| 2026-04-23 02:29 | 36.09533 | -114.28861 | 37833 ft | 399 kts | 222° |
| 2026-04-23 02:30 | 36.05258 | -114.33024 | 37828 ft | 384 kts | 234° |
| 2026-04-23 02:30 | 36.01704 | -114.37963 | 37853 ft | 382 kts | 236° |
| 2026-04-23 02:31 | 35.98176 | -114.42892 | 37843 ft | 383 kts | 236° |
| 2026-04-23 02:31 | 35.94636 | -114.47807 | 37859 ft | 383 kts | 236° |
| 2026-04-23 02:32 | 35.91083 | -114.52720 | 37854 ft | 383 kts | 236° |
| 2026-04-23 02:32 | 35.87538 | -114.57611 | 37863 ft | 382 kts | 235° |
| 2026-04-23 02:33 | 35.83999 | -114.62486 | 37851 ft | 382 kts | 236° |
| 2026-04-23 02:33 | 35.80458 | -114.67360 | 37902 ft | 381 kts | 236° |
| 2026-04-23 02:34 | 35.76916 | -114.72226 | 37895 ft | 382 kts | 235° |
| 2026-04-23 02:34 | 35.73369 | -114.77091 | 37939 ft | 382 kts | 235° |
| 2026-04-23 02:35 | 35.69836 | -114.81935 | 37941 ft | 380 kts | 236° |
| 2026-04-23 02:35 | 35.66298 | -114.86773 | 37949 ft | 381 kts | 235° |
| 2026-04-23 02:36 | 35.62755 | -114.91632 | 37959 ft | 382 kts | 236° |
| 2026-04-23 02:36 | 35.59203 | -114.96505 | 37946 ft | 383 kts | 235° |
| 2026-04-23 02:37 | 35.55641 | -115.01382 | 37933 ft | 383 kts | 235° |
| 2026-04-23 02:37 | 35.51820 | -115.05993 | 37946 ft | 393 kts | 225° |
| 2026-04-23 02:38 | 35.47083 | -115.09527 | 37957 ft | 407 kts | 214° |
| 2026-04-23 02:38 | 35.41675 | -115.11893 | 37945 ft | 414 kts | 209° |
| 2026-04-23 02:39 | 35.36210 | -115.14104 | 37950 ft | 413 kts | 209° |
| 2026-04-23 02:39 | 35.30767 | -115.16340 | 37970 ft | 412 kts | 210° |
| 2026-04-23 02:40 | 35.25335 | -115.18596 | 37958 ft | 412 kts | 210° |
| 2026-04-23 02:40 | 35.19906 | -115.20852 | 37917 ft | 411 kts | 210° |
| 2026-04-23 02:41 | 35.14494 | -115.23092 | 37939 ft | 411 kts | 209° |
| 2026-04-23 02:41 | 35.08868 | -115.24819 | 37947 ft | 420 kts | 204° |
| 2026-04-23 02:42 | 35.03155 | -115.26298 | 37935 ft | 420 kts | 204° |
| 2026-04-23 02:42 | 34.97445 | -115.27810 | 37930 ft | 420 kts | 204° |
| 2026-04-23 02:43 | 34.91751 | -115.29350 | 37927 ft | 419 kts | 204° |
| 2026-04-23 02:43 | 34.86069 | -115.30894 | 37918 ft | 418 kts | 204° |
| 2026-04-23 02:44 | 34.80387 | -115.32434 | 37916 ft | 418 kts | 204° |
| 2026-04-23 02:44 | 34.74883 | -115.34340 | 37944 ft | 406 kts | 210° |
| 2026-04-23 02:45 | 34.69513 | -115.36564 | 37871 ft | 408 kts | 210° |
| 2026-04-23 02:45 | 34.64124 | -115.38775 | 37883 ft | 410 kts | 210° |
| 2026-04-23 02:46 | 34.58706 | -115.40982 | 37900 ft | 412 kts | 210° |
| 2026-04-23 02:46 | 34.53262 | -115.43194 | 37898 ft | 414 kts | 210° |
| 2026-04-23 02:47 | 34.47786 | -115.45413 | 37893 ft | 416 kts | 210° |
| 2026-04-23 02:47 | 34.42300 | -115.47634 | 37873 ft | 415 kts | 210° |
| 2026-04-23 02:48 | 34.36864 | -115.49930 | 37873 ft | 408 kts | 214° |
| 2026-04-23 02:48 | 34.34392 | -115.51508 | 37872 ft | 396 kts | 222° |
| 2026-04-23 02:48 | 34.32066 | -115.53279 | 37875 ft | 396 kts | 222° |
| 2026-04-23 02:49 | 34.27382 | -115.56788 | 37883 ft | 396 kts | 221° |
| 2026-04-23 02:49 | 34.22674 | -115.60266 | 37877 ft | 397 kts | 221° |
| 2026-04-23 02:50 | 34.17674 | -115.63273 | 37845 ft | 409 kts | 212° |
| 2026-04-23 02:50 | 34.12347 | -115.65675 | 37895 ft | 408 kts | 212° |
| 2026-04-23 02:51 | 34.07039 | -115.68100 | 37882 ft | 406 kts | 212° |
| 2026-04-23 02:51 | 34.01780 | -115.70566 | 37897 ft | 405 kts | 212° |
| 2026-04-23 02:52 | 33.96546 | -115.73036 | 37892 ft | 403 kts | 212° |
| 2026-04-23 02:52 | 33.91456 | -115.75418 | 37683 ft | 380 kts | 213° |
| 2026-04-23 02:52 | 33.89029 | -115.76595 | 37123 ft | 376 kts | 214° |
| 2026-04-23 02:53 | 33.86577 | -115.77818 | 35972 ft | 388 kts | 214° |
| 2026-04-23 02:53 | 33.84039 | -115.79090 | 34759 ft | 403 kts | 213° |
| 2026-04-23 02:53 | 33.81404 | -115.80394 | 33557 ft | 417 kts | 212° |
| 2026-04-23 02:53 | 33.78684 | -115.81727 | 32319 ft | 427 kts | 211° |
| 2026-04-23 02:54 | 33.75920 | -115.83064 | 31503 ft | 428 kts | 210° |
| 2026-04-23 02:54 | 33.73143 | -115.84367 | 30774 ft | 428 kts | 209° |
| 2026-04-23 02:54 | 33.70375 | -115.85650 | 30137 ft | 425 kts | 208° |
| 2026-04-23 02:54 | 33.67632 | -115.86921 | 29474 ft | 421 kts | 208° |
| 2026-04-23 02:55 | 33.64916 | -115.88183 | 28786 ft | 416 kts | 208° |
| 2026-04-23 02:55 | 33.62233 | -115.89433 | 28240 ft | 411 kts | 208° |
| 2026-04-23 02:55 | 33.59584 | -115.90672 | 27644 ft | 406 kts | 208° |
| 2026-04-23 02:55 | 33.56965 | -115.91896 | 27072 ft | 402 kts | 208° |
| 2026-04-23 02:56 | 33.54367 | -115.93108 | 26490 ft | 399 kts | 209° |
| 2026-04-23 02:56 | 33.51979 | -115.94634 | 26075 ft | 380 kts | 224° |
| 2026-04-23 02:56 | 33.50120 | -115.96739 | 25968 ft | 359 kts | 237° |
| 2026-04-23 02:56 | 33.48666 | -115.99147 | 25922 ft | 353 kts | 240° |
| 2026-04-23 02:57 | 33.47293 | -116.01554 | 25592 ft | 347 kts | 240° |
| 2026-04-23 02:57 | 33.45933 | -116.03960 | 24772 ft | 353 kts | 240° |
| 2026-04-23 02:57 | 33.44535 | -116.06421 | 23695 ft | 361 kts | 240° |
| 2026-04-23 02:57 | 33.43139 | -116.08847 | 23316 ft | 348 kts | 240° |
| 2026-04-23 02:58 | 33.41750 | -116.11251 | 22852 ft | 357 kts | 240° |
| 2026-04-23 02:58 | 33.40316 | -116.13729 | 22421 ft | 365 kts | 239° |
| 2026-04-23 02:58 | 33.38867 | -116.16220 | 21948 ft | 364 kts | 239° |
| 2026-04-23 02:58 | 33.37426 | -116.18695 | 21535 ft | 361 kts | 239° |
| 2026-04-23 02:59 | 33.35982 | -116.21153 | 21077 ft | 360 kts | 239° |
| 2026-04-23 02:59 | 33.34526 | -116.23589 | 20619 ft | 361 kts | 235° |
| 2026-04-23 02:59 | 33.32659 | -116.25622 | 20185 ft | 368 kts | 219° |
| 2026-04-23 02:59 | 33.30410 | -116.27123 | 19766 ft | 371 kts | 212° |
| 2026-04-23 03:00 | 33.28089 | -116.28467 | 19329 ft | 370 kts | 211° |
| 2026-04-23 03:00 | 33.25763 | -116.29777 | 18890 ft | 369 kts | 211° |
| 2026-04-23 03:00 | 33.23441 | -116.31090 | 18433 ft | 369 kts | 211° |
| 2026-04-23 03:00 | 33.21128 | -116.32414 | 17940 ft | 368 kts | 211° |
| 2026-04-23 03:01 | 33.18829 | -116.33743 | 17458 ft | 367 kts | 211° |
| 2026-04-23 03:01 | 33.16542 | -116.35073 | 16992 ft | 364 kts | 211° |
| 2026-04-23 03:01 | 33.14270 | -116.36400 | 16440 ft | 364 kts | 211° |
| 2026-04-23 03:01 | 33.12012 | -116.37720 | 16004 ft | 359 kts | 211° |
| 2026-04-23 03:02 | 33.09773 | -116.39021 | 15600 ft | 357 kts | 212° |
| 2026-04-23 03:02 | 33.07558 | -116.40321 | 15161 ft | 354 kts | 212° |
| 2026-04-23 03:02 | 33.05355 | -116.41610 | 14734 ft | 352 kts | 212° |
| 2026-04-23 03:02 | 33.03167 | -116.42886 | 14294 ft | 349 kts | 212° |
| 2026-04-23 03:03 | 33.01003 | -116.44150 | 13880 ft | 342 kts | 213° |
| 2026-04-23 03:03 | 32.99098 | -116.45690 | 13428 ft | 323 kts | 226° |
| 2026-04-23 03:03 | 32.97413 | -116.47426 | 13019 ft | 318 kts | 226° |
| 2026-04-23 03:03 | 32.95763 | -116.49155 | 12637 ft | 315 kts | 226° |
| 2026-04-23 03:04 | 32.94118 | -116.50858 | 12286 ft | 312 kts | 226° |
| 2026-04-23 03:04 | 32.92476 | -116.52539 | 11914 ft | 311 kts | 225° |
| 2026-04-23 03:04 | 32.90832 | -116.54207 | 11521 ft | 310 kts | 225° |
| 2026-04-23 03:04 | 32.89197 | -116.55867 | 11149 ft | 308 kts | 225° |
| 2026-04-23 03:05 | 32.88115 | -116.56961 | 10918 ft | 307 kts | 225° |
| 2026-04-23 03:05 | 32.86488 | -116.58599 | 10527 ft | 303 kts | 225° |
| 2026-04-23 03:05 | 32.84903 | -116.60190 | 10167 ft | 293 kts | 225° |
| 2026-04-23 03:05 | 32.83375 | -116.61733 | 9888 ft | 281 kts | 225° |
| 2026-04-23 03:06 | 32.81934 | -116.63179 | 9617 ft | 268 kts | 225° |
| 2026-04-23 03:06 | 32.80513 | -116.64609 | 9175 ft | 264 kts | 225° |
| 2026-04-23 03:06 | 32.79120 | -116.66009 | 8802 ft | 258 kts | 225° |
| 2026-04-23 03:06 | 32.77771 | -116.67375 | 8458 ft | 251 kts | 227° |
| 2026-04-23 03:07 | 32.76764 | -116.68975 | 8165 ft | 237 kts | 245° |
| 2026-04-23 03:07 | 32.75990 | -116.70664 | 7881 ft | 229 kts | 245° |
| 2026-04-23 03:07 | 32.75229 | -116.72297 | 7613 ft | 223 kts | 244° |
| 2026-04-23 03:07 | 32.74476 | -116.73900 | 7344 ft | 222 kts | 244° |
| 2026-04-23 03:08 | 32.73724 | -116.75501 | 7082 ft | 222 kts | 244° |
| 2026-04-23 03:08 | 32.72971 | -116.77100 | 6806 ft | 222 kts | 244° |
| 2026-04-23 03:08 | 32.72216 | -116.78696 | 6539 ft | 221 kts | 244° |
| 2026-04-23 03:08 | 32.71461 | -116.80289 | 6258 ft | 222 kts | 244° |
| 2026-04-23 03:09 | 32.70709 | -116.81892 | 5977 ft | 221 kts | 246° |
| 2026-04-23 03:09 | 32.70134 | -116.83572 | 5712 ft | 219 kts | 252° |
| 2026-04-23 03:09 | 32.69615 | -116.85291 | 5453 ft | 224 kts | 252° |
| 2026-04-23 03:09 | 32.69081 | -116.87048 | 5184 ft | 227 kts | 252° |
| 2026-04-23 03:10 | 32.68552 | -116.88811 | 4915 ft | 225 kts | 253° |
| 2026-04-23 03:10 | 32.68042 | -116.90544 | 4622 ft | 221 kts | 253° |
| 2026-04-23 03:10 | 32.67543 | -116.92233 | 4394 ft | 212 kts | 253° |
| 2026-04-23 03:10 | 32.67288 | -116.93905 | 4104 ft | 203 kts | 281° |
| 2026-04-23 03:11 | 32.67648 | -116.95462 | 3941 ft | 191 kts | 287° |
| 2026-04-23 03:11 | 32.68002 | -116.96944 | 3714 ft | 182 kts | 287° |
| 2026-04-23 03:11 | 32.68340 | -116.98350 | 3498 ft | 174 kts | 288° |
| 2026-04-23 03:11 | 32.68666 | -116.99695 | 3318 ft | 166 kts | 287° |
| 2026-04-23 03:12 | 32.68986 | -117.01015 | 3107 ft | 166 kts | 287° |
| 2026-04-23 03:12 | 32.69305 | -117.02325 | 2909 ft | 164 kts | 287° |
| 2026-04-23 03:12 | 32.69615 | -117.03602 | 2729 ft | 158 kts | 287° |
| 2026-04-23 03:12 | 32.69915 | -117.04837 | 2554 ft | 152 kts | 288° |
| 2026-04-23 03:13 | 32.70204 | -117.06021 | 2342 ft | 148 kts | 287° |
| 2026-04-23 03:13 | 32.70488 | -117.07191 | 2150 ft | 147 kts | 286° |
| 2026-04-23 03:13 | 32.70770 | -117.08348 | 1956 ft | 143 kts | 287° |
| 2026-04-23 03:13 | 32.71038 | -117.09450 | 1713 ft | 134 kts | 287° |
| 2026-04-23 03:14 | 32.71292 | -117.10499 | 1498 ft | 134 kts | 285° |
| 2026-04-23 03:14 | 32.71556 | -117.11570 | 1355 ft | 137 kts | 287° |
| 2026-04-23 03:14 | 32.71828 | -117.12665 | 1122 ft | 138 kts | 287° |
| 2026-04-23 03:14 | 32.72084 | -117.13738 | 891 ft | 132 kts | 286° |
| 2026-04-23 03:15 | 32.72331 | -117.14774 | 720 ft | 130 kts | 288° |
| 2026-04-23 03:15 | 32.72581 | -117.15820 | 501 ft | 131 kts | 288° |
| 2026-04-23 03:15 | 32.72839 | -117.16845 | 297 ft | 128 kts | 287° |
| 2026-04-23 03:15 | 32.73082 | -117.17846 | 98 ft | 123 kts | 288° |
| 2026-04-23 03:16 | 32.73309 | -117.18770 | 26 ft | 102 kts | 286° |
| 2026-04-23 03:16 | 32.73444 | -117.19330 | 22 ft | 44 kts | 285° |
| 2026-04-23 03:16 | 32.73514 | -117.19824 | 25 ft | 14 kts | 251° |
| 2026-04-23 03:17 | 32.73493 | -117.19894 | 22 ft | 2 kts | 253° |
| 2026-04-23 03:17 | 32.73492 | -117.19898 | 22 ft | 2 kts | 253° |
| 2026-04-23 03:18 | 32.73495 | -117.19962 | 23 ft | 13 kts | 283° |
| 2026-04-23 03:18 | 32.73526 | -117.20097 | 23 ft | 18 kts | 287° |
| 2026-04-23 03:18 | 32.73535 | -117.20220 | 22 ft | 12 kts | 235° |
| 2026-04-23 03:18 | 32.73443 | -117.20262 | 22 ft | 15 kts | 196° |
| 2026-04-23 03:19 | 32.73359 | -117.20279 | 22 ft | 10 kts | 198° |
| 2026-04-23 03:19 | 32.73342 | -117.20309 | 22 ft | 3 kts | 262° |
| 2026-04-23 03:19 | 32.73339 | -117.20341 | 22 ft | 2 kts | 263° |
| 2026-04-23 03:19 | 32.73338 | -117.20349 | 22 ft | 0 kts | 263° |